createdAt,value
2022-08-21T00:02:25.087Z,99097.72
2022-08-21T00:04:57.761Z,99092.19
2022-08-21T00:07:27.870Z,99091.81
2022-08-21T00:09:56.809Z,99096.41
2022-08-21T00:12:25.327Z,99091.88
2022-08-21T00:14:58.170Z,99098.72
2022-08-21T00:17:28.583Z,99095.88
2022-08-21T00:19:58.642Z,99088.09
2022-08-21T00:22:27.470Z,99075.75
2022-08-21T00:24:56.540Z,99083.88
2022-08-21T00:27:24.862Z,99074.50
2022-08-21T00:29:56.701Z,99080.00
2022-08-21T00:32:27.124Z,99075.06
2022-08-21T00:34:56.220Z,99074.38
2022-08-21T00:37:24.616Z,99075.63
2022-08-21T00:39:54.440Z,99078.66
2022-08-21T00:42:24.457Z,99072.59
2022-08-21T00:44:52.856Z,99067.34
2022-08-21T00:47:29.022Z,99076.50
2022-08-21T00:49:59.871Z,99082.59
2022-08-21T00:52:34.120Z,99074.25
2022-08-21T00:55:06.285Z,99069.41
2022-08-21T00:57:45.557Z,99071.81
2022-08-21T01:00:18.556Z,99070.28
2022-08-21T01:02:48.732Z,99071.09
2022-08-21T01:05:18.637Z,99068.66
2022-08-21T01:07:47.136Z,99080.22
2022-08-21T01:10:24.181Z,99071.44
2022-08-21T01:12:54.334Z,99075.25
2022-08-21T01:15:25.005Z,99068.75
2022-08-21T01:17:55.892Z,99074.47
2022-08-21T01:20:32.273Z,99068.41
2022-08-21T01:23:03.249Z,99072.94
2022-08-21T01:25:32.187Z,99076.66
2022-08-21T01:28:05.328Z,99079.41
2022-08-21T01:30:37.520Z,99075.13
2022-08-21T01:33:12.543Z,99076.50
2022-08-21T01:35:44.266Z,99079.44
2022-08-21T01:38:18.532Z,99084.44
2022-08-21T01:40:47.336Z,99083.38
2022-08-21T01:43:16.541Z,99080.00
2022-08-21T01:45:54.033Z,99082.91
2022-08-21T01:48:23.041Z,99079.97
2022-08-21T01:50:52.881Z,99078.81
2022-08-21T01:53:33.652Z,99080.81
2022-08-21T01:56:02.975Z,99079.97
2022-08-21T01:58:31.179Z,99082.50
2022-08-21T02:00:59.942Z,99075.66
2022-08-21T02:03:35.903Z,99077.38
2022-08-21T02:06:05.107Z,99070.59
2022-08-21T02:08:35.121Z,99075.66
2022-08-21T02:11:03.884Z,99069.78
2022-08-21T02:13:32.009Z,99078.41
2022-08-21T02:16:01.440Z,99064.72
2022-08-21T02:18:31.217Z,99066.44
2022-08-21T02:20:59.409Z,99062.34
2022-08-21T02:23:33.359Z,99061.41
2022-08-21T02:26:09.002Z,99061.56
2022-08-21T02:28:38.172Z,99063.94
2022-08-21T02:31:08.138Z,99062.72
2022-08-21T02:33:36.756Z,99055.38
2022-08-21T02:36:06.799Z,99059.59
2022-08-21T02:38:39.094Z,99062.28
2022-08-21T02:41:14.619Z,99060.59
2022-08-21T02:43:43.695Z,99061.19
2022-08-21T02:46:16.463Z,99065.78
2022-08-21T02:48:45.834Z,99066.38
2022-08-21T02:51:17.125Z,99062.97
2022-08-21T02:53:46.020Z,99060.59
2022-08-21T02:56:19.135Z,99057.38
2022-08-21T02:58:50.114Z,99064.56
2022-08-21T03:01:18.990Z,99066.25
2022-08-21T03:03:52.173Z,99057.63
2022-08-21T03:06:22.501Z,99056.94
2022-08-21T03:08:52.110Z,99054.53
2022-08-21T03:11:23.609Z,99054.53
2022-08-21T03:13:51.834Z,99053.97
2022-08-21T03:16:22.142Z,99054.78
2022-08-21T03:18:52.684Z,99061.53
2022-08-21T03:21:21.453Z,99065.34
2022-08-21T03:23:50.096Z,99066.88
2022-08-21T03:26:20.267Z,99069.44
2022-08-21T03:28:52.177Z,99067.34
2022-08-21T03:31:25.125Z,99063.69
2022-08-21T03:33:56.076Z,99071.28
2022-08-21T03:36:24.333Z,99071.28
2022-08-21T03:38:53.074Z,99072.09
2022-08-21T03:41:21.424Z,99061.69
2022-08-21T03:43:51.468Z,99073.56
2022-08-21T03:46:19.918Z,99069.19
2022-08-21T03:48:48.769Z,99076.09
2022-08-21T03:51:18.174Z,99077.31
2022-08-21T03:53:46.458Z,99080.72
2022-08-21T03:56:17.264Z,99073.19
2022-08-21T03:58:46.205Z,99081.78
2022-08-21T04:01:19.341Z,99078.00
2022-08-21T04:03:48.120Z,99083.91
2022-08-21T04:06:16.211Z,99094.28
2022-08-21T04:08:44.817Z,99102.00
2022-08-21T04:11:13.216Z,99103.53
2022-08-21T04:13:44.563Z,99101.03
2022-08-21T04:16:13.393Z,99104.53
2022-08-21T04:18:43.896Z,99108.75
2022-08-21T04:21:16.366Z,99106.94
2022-08-21T04:23:45.412Z,99112.59
2022-08-21T04:26:13.778Z,99117.41
2022-08-21T04:28:42.332Z,99119.69
2022-08-21T04:31:13.258Z,99107.03
2022-08-21T04:33:43.518Z,99121.91
2022-08-21T04:36:17.055Z,99120.41
2022-08-21T04:38:52.106Z,99126.13
2022-08-21T04:41:28.082Z,99124.19
2022-08-21T04:43:57.688Z,99130.16
2022-08-21T04:46:30.725Z,99126.31
2022-08-21T04:49:00.585Z,99129.78
2022-08-21T04:51:34.030Z,99138.09
2022-08-21T04:54:10.323Z,99135.09
2022-08-21T04:56:42.236Z,99136.06
2022-08-21T04:59:18.273Z,99141.03
2022-08-21T05:01:48.070Z,99143.09
2022-08-21T05:04:23.973Z,99141.69
2022-08-21T05:06:55.382Z,99148.34
2022-08-21T05:09:25.183Z,99144.63
2022-08-21T05:11:55.772Z,99143.59
2022-08-21T05:14:24.448Z,99141.50
2022-08-21T05:16:55.912Z,99144.34
2022-08-21T05:19:26.329Z,99141.56
2022-08-21T05:21:56.145Z,99151.00
2022-08-21T05:24:24.788Z,99151.53
2022-08-21T05:26:53.944Z,99156.00
2022-08-21T05:29:24.586Z,99155.50
2022-08-21T05:31:53.198Z,99155.97
2022-08-21T05:34:26.069Z,99155.91
2022-08-21T05:36:56.652Z,99153.25
2022-08-21T05:39:25.057Z,99152.41
2022-08-21T05:41:53.361Z,99146.53
2022-08-21T05:44:21.527Z,99144.69
2022-08-21T05:46:50.827Z,99150.19
2022-08-21T05:49:19.796Z,99148.63
2022-08-21T05:51:48.083Z,99149.63
2022-08-21T05:54:18.027Z,99151.44
2022-08-21T05:56:47.114Z,99155.13
2022-08-21T05:59:15.272Z,99147.50
2022-08-21T06:01:44.461Z,99143.56
2022-08-21T06:04:12.837Z,99150.59
2022-08-21T06:06:41.564Z,99154.72
2022-08-21T06:09:10.048Z,99156.66
2022-08-21T06:11:39.597Z,99154.28
2022-08-21T06:14:08.946Z,99152.44
2022-08-21T06:16:37.000Z,99156.09
2022-08-21T06:19:07.169Z,99158.78
2022-08-21T06:21:35.512Z,99166.13
2022-08-21T06:24:03.862Z,99151.72
2022-08-21T06:26:32.357Z,99147.63
2022-08-21T06:29:02.454Z,99152.41
2022-08-21T06:31:33.773Z,99148.56
2022-08-21T06:34:05.259Z,99141.91
2022-08-21T06:36:33.769Z,99146.59
2022-08-21T06:39:02.374Z,99150.03
2022-08-21T06:41:44.549Z,99145.81
2022-08-21T06:44:18.202Z,99143.53
2022-08-21T06:46:46.613Z,99149.00
2022-08-21T06:49:21.267Z,99142.84
2022-08-21T06:51:50.473Z,99149.00
2022-08-21T06:54:19.243Z,99143.22
2022-08-21T06:56:48.216Z,99150.13
2022-08-21T06:59:18.139Z,99141.09
2022-08-21T07:01:47.364Z,99149.88
2022-08-21T07:04:15.582Z,99139.13
2022-08-21T07:06:44.024Z,99140.28
2022-08-21T07:09:13.053Z,99142.03
2022-08-21T07:11:44.223Z,99144.56
2022-08-21T07:14:20.423Z,99136.44
2022-08-21T07:16:49.262Z,99130.28
2022-08-21T07:19:17.548Z,99127.06
2022-08-21T07:21:47.839Z,99127.06
2022-08-21T07:24:20.116Z,99129.53
2022-08-21T07:26:48.406Z,99128.56
2022-08-21T07:29:18.939Z,99130.31
2022-08-21T07:31:47.356Z,99132.63
2022-08-21T07:34:18.725Z,99124.66
2022-08-21T07:36:47.731Z,99130.75
2022-08-21T07:39:17.662Z,99117.72
2022-08-21T07:41:46.015Z,99114.78
2022-08-21T07:44:14.274Z,99103.94
2022-08-21T07:46:47.923Z,99109.00
2022-08-21T07:49:16.264Z,99106.94
2022-08-21T07:51:44.828Z,99108.03
2022-08-21T07:54:17.278Z,99098.41
2022-08-21T07:56:46.859Z,99101.16
2022-08-21T07:59:16.208Z,99089.56
2022-08-21T08:01:46.063Z,99099.16
2022-08-21T08:04:16.171Z,99096.09
2022-08-21T08:06:45.493Z,99093.59
2022-08-21T08:09:13.838Z,99096.28
2022-08-21T08:11:44.804Z,99094.59
2022-08-21T08:14:13.534Z,99095.44
2022-08-21T08:16:42.524Z,99092.88
2022-08-21T08:19:12.819Z,99094.97
2022-08-21T08:21:41.263Z,99094.22
2022-08-21T08:24:19.454Z,99095.34
2022-08-21T08:26:53.502Z,99091.91
2022-08-21T08:29:23.168Z,99092.00
2022-08-21T08:31:51.664Z,99090.97
2022-08-21T08:34:25.754Z,99089.13
2022-08-21T08:37:01.524Z,99086.69
2022-08-21T08:39:30.033Z,99078.19
2022-08-21T08:42:04.925Z,99089.38
2022-08-21T08:45:02.166Z,99081.38
2022-08-21T08:47:33.943Z,99078.59
2022-08-21T08:50:08.723Z,99075.28
2022-08-21T08:52:45.762Z,99079.09
2022-08-21T08:55:17.388Z,99075.41
2022-08-21T08:57:50.166Z,99074.94
2022-08-21T09:00:22.875Z,99075.19
2022-08-21T09:02:56.081Z,99081.22
2022-08-21T09:05:32.118Z,99071.19
2022-08-21T09:08:19.435Z,99066.00
2022-08-21T09:10:57.736Z,99058.91
2022-08-21T09:13:38.800Z,99055.00
2022-08-21T09:16:16.790Z,99053.44
2022-08-21T09:18:58.410Z,99049.03
2022-08-21T09:21:46.929Z,99045.84
2022-08-21T09:24:34.411Z,99046.88
2022-08-21T09:27:09.909Z,99048.97
2022-08-21T09:29:42.140Z,99048.75
2022-08-21T09:32:19.543Z,99052.97
2022-08-21T09:34:59.522Z,99043.25
2022-08-21T09:37:34.857Z,99059.50
2022-08-21T09:40:05.665Z,99062.84
2022-08-21T09:42:34.741Z,99064.34
2022-08-21T09:45:15.978Z,99049.41
2022-08-21T09:47:46.856Z,99041.13
2022-08-21T09:50:22.483Z,99050.47
2022-08-21T09:52:58.304Z,99040.78
2022-08-21T09:55:53.423Z,99045.16
2022-08-21T09:58:26.903Z,99056.19
2022-08-21T10:01:01.021Z,99048.00
2022-08-21T10:03:31.823Z,99045.13
2022-08-21T10:06:03.056Z,99039.06
2022-08-21T10:08:36.101Z,99033.13
2022-08-21T10:11:07.433Z,99034.41
2022-08-21T10:13:50.043Z,99024.41
2022-08-21T10:16:34.135Z,99028.09
2022-08-21T10:19:18.023Z,99024.56
2022-08-21T10:22:00.162Z,99020.22
2022-08-21T10:24:35.719Z,99022.63
2022-08-21T10:27:21.886Z,99017.19
2022-08-21T10:29:57.959Z,99015.00
2022-08-21T10:32:59.917Z,99009.78
2022-08-21T10:35:33.173Z,99009.31
2022-08-21T10:39:02.629Z,99010.84
2022-08-21T10:42:07.656Z,99005.00
2022-08-21T10:44:41.897Z,99001.09
2022-08-21T10:47:18.231Z,98993.94
2022-08-21T10:49:57.661Z,99003.34
2022-08-21T10:52:44.353Z,99000.25
2022-08-21T10:55:18.457Z,98992.53
2022-08-21T10:57:52.000Z,98996.00
2022-08-21T11:00:23.888Z,98988.50
2022-08-21T11:02:59.982Z,98987.81
2022-08-21T11:05:33.453Z,98987.38
2022-08-21T11:08:11.348Z,98991.44
2022-08-21T11:10:58.006Z,98992.69
2022-08-21T11:13:40.647Z,98985.78
2022-08-21T11:16:18.904Z,98978.44
2022-08-21T11:18:57.533Z,98972.16
2022-08-21T11:21:36.868Z,98973.16
2022-08-21T11:24:21.867Z,98974.69
2022-08-21T11:26:55.626Z,98972.53
2022-08-21T11:29:30.856Z,98984.28
2022-08-21T11:32:27.355Z,98978.44
2022-08-21T11:35:03.392Z,98970.09
2022-08-21T11:37:48.120Z,98960.97
2022-08-21T11:40:28.925Z,98962.97
2022-08-21T11:43:05.563Z,98965.53
2022-08-21T11:45:44.813Z,98968.03
2022-08-21T11:48:26.209Z,98964.38
2022-08-21T11:50:56.971Z,98962.19
2022-08-21T11:53:32.449Z,98953.13
2022-08-21T11:56:04.693Z,98956.88
2022-08-21T11:58:39.285Z,98952.34
2022-08-21T12:01:13.984Z,98948.47
2022-08-21T12:03:45.625Z,98946.88
2022-08-21T12:06:24.239Z,98945.53
2022-08-21T12:09:01.939Z,98938.31
2022-08-21T12:11:31.227Z,98935.88
2022-08-21T12:14:14.427Z,98939.53
2022-08-21T12:16:48.774Z,98940.16
2022-08-21T12:19:32.220Z,98934.94
2022-08-21T12:22:10.209Z,98931.44
2022-08-21T12:24:42.192Z,98927.69
2022-08-21T12:27:26.752Z,98929.66
2022-08-21T12:29:57.840Z,98941.16
2022-08-21T12:32:32.957Z,98934.09
2022-08-21T12:35:08.777Z,98931.00
2022-08-21T12:37:48.222Z,98940.59
2022-08-21T12:40:24.674Z,98933.47
2022-08-21T12:42:59.189Z,98934.13
2022-08-21T12:45:36.381Z,98929.41
2022-08-21T12:48:13.252Z,98931.78
2022-08-21T12:50:49.081Z,98928.94
2022-08-21T12:53:27.890Z,98932.38
2022-08-21T12:56:01.076Z,98924.91
2022-08-21T12:58:31.386Z,98918.63
2022-08-21T13:01:07.229Z,98925.91
2022-08-21T13:03:39.817Z,98922.25
2022-08-21T13:06:12.528Z,98910.75
2022-08-21T13:08:47.265Z,98900.69
2022-08-21T13:11:32.488Z,98905.63
2022-08-21T13:14:04.784Z,98897.94
2022-08-21T13:16:35.691Z,98910.69
2022-08-21T13:19:09.782Z,98898.78
2022-08-21T13:21:44.923Z,98893.53
2022-08-21T13:27:21.441Z,98897.16
2022-08-21T13:29:54.365Z,98885.19
2022-08-21T13:32:28.746Z,98893.50
2022-08-21T13:35:01.318Z,98889.53
2022-08-21T13:37:32.896Z,98879.94
2022-08-21T13:40:01.555Z,98885.16
2022-08-21T13:42:30.380Z,98878.47
2022-08-21T13:44:58.865Z,98876.34
2022-08-21T13:47:27.777Z,98878.03
2022-08-21T13:50:02.625Z,98872.28
2022-08-21T13:52:31.516Z,98869.22
2022-08-21T13:55:09.975Z,98871.75
2022-08-21T13:57:40.647Z,98869.91
2022-08-21T14:00:14.917Z,98872.53
2022-08-21T14:02:48.276Z,98872.94
2022-08-21T14:05:24.140Z,98867.97
2022-08-21T14:08:00.120Z,98864.09
2022-08-21T14:10:31.642Z,98866.84
2022-08-21T14:13:04.607Z,98860.78
2022-08-21T14:15:35.372Z,98859.13
2022-08-21T14:18:11.933Z,98862.41
2022-08-21T14:20:42.515Z,98851.81
2022-08-21T14:23:10.757Z,98855.63
2022-08-21T14:25:45.089Z,98850.53
2022-08-21T14:28:28.283Z,98852.44
2022-08-21T14:30:59.461Z,98861.72
2022-08-21T14:33:35.032Z,98856.00
2022-08-21T14:36:05.998Z,98862.50
2022-08-21T14:38:34.785Z,98853.91
2022-08-21T14:41:11.301Z,98850.25
2022-08-21T14:43:39.924Z,98853.69
2022-08-21T14:46:08.598Z,98850.19
2022-08-21T14:48:37.013Z,98859.63
2022-08-21T14:51:07.483Z,98860.81
2022-08-21T14:53:36.137Z,98852.69
2022-08-21T14:56:08.460Z,98849.63
2022-08-21T14:58:40.173Z,98848.78
2022-08-21T15:01:10.663Z,98844.97
2022-08-21T15:03:39.965Z,98845.88
2022-08-21T15:06:11.782Z,98848.94
2022-08-21T15:08:41.873Z,98855.97
2022-08-21T15:11:18.547Z,98850.81
2022-08-21T15:14:05.586Z,98845.25
2022-08-21T15:16:34.135Z,98837.25
2022-08-21T15:19:02.729Z,98839.91
2022-08-21T15:21:32.925Z,98842.38
2022-08-21T15:24:01.569Z,98839.06
2022-08-21T15:26:30.073Z,98835.88
2022-08-21T15:29:00.526Z,98839.00
2022-08-21T15:31:29.158Z,98834.09
2022-08-21T15:34:04.222Z,98841.38
2022-08-21T15:36:34.404Z,98842.03
2022-08-21T15:39:04.565Z,98838.28
2022-08-21T15:41:32.820Z,98828.06
2022-08-21T15:44:01.237Z,98834.44
2022-08-21T15:46:29.744Z,98840.09
2022-08-21T15:48:59.891Z,98831.53
2022-08-21T15:51:28.798Z,98829.00
2022-08-21T15:53:59.609Z,98831.22
2022-08-21T15:56:35.514Z,98822.06
2022-08-21T15:59:06.596Z,98830.44
2022-08-21T16:01:44.994Z,98826.09
2022-08-21T16:04:18.926Z,98828.75
2022-08-21T16:06:55.585Z,98825.59
2022-08-21T16:09:27.964Z,98824.16
2022-08-21T16:11:56.606Z,98823.19
2022-08-21T16:14:27.025Z,98824.53
2022-08-21T16:16:56.214Z,98818.84
2022-08-21T16:19:24.776Z,98820.84
2022-08-21T16:21:54.089Z,98828.47
2022-08-21T16:24:22.241Z,98818.53
2022-08-21T16:26:57.806Z,98824.88
2022-08-21T16:29:28.300Z,98824.94
2022-08-21T16:32:00.972Z,98815.00
2022-08-21T16:34:29.706Z,98807.06
2022-08-21T16:36:59.339Z,98814.91
2022-08-21T16:39:27.818Z,98817.69
2022-08-21T16:41:58.837Z,98814.78
2022-08-21T16:44:30.216Z,98801.22
2022-08-21T16:46:59.937Z,98798.34
2022-08-21T16:49:32.502Z,98799.59
2022-08-21T16:52:00.926Z,98789.66
2022-08-21T16:54:31.044Z,98795.34
2022-08-21T16:57:01.508Z,98786.31
2022-08-21T16:59:31.613Z,98790.16
2022-08-21T17:02:02.601Z,98782.09
2022-08-21T17:04:31.337Z,98786.34
2022-08-21T17:06:59.764Z,98787.19
2022-08-21T17:09:30.146Z,98785.16
2022-08-21T17:12:00.776Z,98791.13
2022-08-21T17:14:29.186Z,98783.72
2022-08-21T17:16:58.452Z,98785.91
2022-08-21T17:19:28.197Z,98785.13
2022-08-21T17:21:56.689Z,98779.56
2022-08-21T17:24:25.008Z,98780.75
2022-08-21T17:26:56.385Z,98778.50
2022-08-21T17:29:30.560Z,98780.16
2022-08-21T17:31:59.268Z,98783.50
2022-08-21T17:34:31.118Z,98787.19
2022-08-21T17:37:00.518Z,98783.41
2022-08-21T17:39:28.833Z,98788.66
2022-08-21T17:42:01.875Z,98782.84
2022-08-21T17:44:32.249Z,98783.50
2022-08-21T17:47:01.046Z,98787.72
2022-08-21T17:49:31.581Z,98788.41
2022-08-21T17:52:00.357Z,98782.78
2022-08-21T17:54:31.477Z,98792.41
2022-08-21T17:57:07.434Z,98787.50
2022-08-21T17:59:38.478Z,98790.19
2022-08-21T18:02:09.877Z,98789.50
2022-08-21T18:04:50.603Z,98787.88
2022-08-21T18:07:25.307Z,98784.31
2022-08-21T18:10:01.720Z,98790.69
2022-08-21T18:12:30.335Z,98794.06
2022-08-21T18:15:02.869Z,98796.81
2022-08-21T18:17:33.868Z,98796.13
2022-08-21T18:20:02.274Z,98793.72
2022-08-21T18:22:32.270Z,98798.91
2022-08-21T18:25:01.304Z,98806.59
2022-08-21T18:27:31.752Z,98812.09
2022-08-21T18:30:02.933Z,98812.00
2022-08-21T18:32:32.341Z,98806.66
2022-08-21T18:35:03.321Z,98816.78
2022-08-21T18:37:32.159Z,98821.16
2022-08-21T18:40:00.878Z,98819.72
2022-08-21T18:42:33.217Z,98821.59
2022-08-21T18:45:05.334Z,98815.97
2022-08-21T18:47:38.352Z,98820.59
2022-08-21T18:50:10.230Z,98823.72
2022-08-21T18:55:28.493Z,98829.16
2022-08-21T18:57:58.360Z,98836.25
2022-08-21T19:00:31.797Z,98838.72
2022-08-21T19:03:02.218Z,98841.84
2022-08-21T19:05:34.583Z,98842.69
2022-08-21T19:08:05.068Z,98841.97
2022-08-21T19:10:33.889Z,98848.00
2022-08-21T19:13:04.200Z,98849.53
2022-08-21T19:15:40.210Z,98855.22
2022-08-21T19:18:12.162Z,98854.94
2022-08-21T19:20:42.883Z,98855.19
2022-08-21T19:23:14.324Z,98865.50
2022-08-21T19:25:45.881Z,98866.03
2022-08-21T19:28:26.268Z,98859.91
2022-08-21T19:31:01.826Z,98862.47
2022-08-21T19:33:34.741Z,98867.00
2022-08-21T19:36:08.129Z,98879.06
2022-08-21T19:38:39.582Z,98871.72
2022-08-21T19:41:09.647Z,98877.28
2022-08-21T19:43:43.812Z,98876.63
2022-08-21T19:46:24.280Z,98875.59
2022-08-21T19:48:56.242Z,98872.78
2022-08-21T19:51:26.298Z,98872.94
2022-08-21T19:53:57.438Z,98887.28
2022-08-21T19:56:30.630Z,98886.34
2022-08-21T19:59:00.103Z,98887.84
2022-08-21T20:01:32.597Z,98891.00
2022-08-21T20:04:02.328Z,98889.38
2022-08-21T20:06:30.823Z,98886.38
2022-08-21T20:09:01.537Z,98890.59
2022-08-21T20:11:33.457Z,98883.50
2022-08-21T20:14:02.800Z,98891.06
2022-08-21T20:16:33.979Z,98883.66
2022-08-21T20:19:05.504Z,98885.41
2022-08-21T20:24:22.808Z,98887.72
2022-08-21T20:26:57.205Z,98890.56
2022-08-21T20:29:29.250Z,98888.69
2022-08-21T20:32:08.135Z,98893.44
2022-08-21T20:34:40.696Z,98898.28
2022-08-21T20:37:13.484Z,98899.16
2022-08-21T20:39:50.801Z,98898.31
2022-08-21T20:42:19.494Z,98898.78
2022-08-21T20:44:48.165Z,98901.56
2022-08-21T20:47:18.138Z,98894.75
2022-08-21T20:49:59.632Z,98897.06
2022-08-21T20:52:29.321Z,98899.59
2022-08-21T20:55:02.306Z,98899.31
2022-08-21T20:57:38.878Z,98904.22
2022-08-21T21:00:14.633Z,98897.72
2022-08-21T21:02:52.304Z,98899.97
2022-08-21T21:05:28.484Z,98904.06
2022-08-21T21:08:03.697Z,98910.66
2022-08-21T21:10:49.483Z,98906.91
2022-08-21T21:13:22.574Z,98910.00
2022-08-21T21:15:56.713Z,98915.88
2022-08-21T21:18:33.752Z,98912.34
2022-08-21T21:21:08.745Z,98919.28
2022-08-21T21:23:46.904Z,98910.28
2022-08-21T21:26:21.965Z,98917.06
2022-08-21T21:28:56.112Z,98921.09
2022-08-21T21:31:25.601Z,98926.31
2022-08-21T21:33:57.728Z,98924.75
2022-08-21T21:36:35.949Z,98927.44
2022-08-21T21:39:23.321Z,98930.28
2022-08-21T21:41:58.955Z,98935.31
2022-08-21T21:44:47.712Z,98942.16
2022-08-21T21:47:29.233Z,98933.13
2022-08-21T21:50:18.757Z,98939.13
2022-08-21T21:53:01.836Z,98939.13
2022-08-21T21:55:50.359Z,98943.94
2022-08-21T21:58:38.792Z,98940.16
2022-08-21T22:01:17.570Z,98939.69
2022-08-21T22:03:55.253Z,98932.19
2022-08-21T22:06:36.105Z,98938.44
2022-08-21T22:09:12.850Z,98931.59
2022-08-21T22:11:56.332Z,98936.63
2022-08-21T22:14:31.596Z,98929.91
2022-08-21T22:17:04.356Z,98932.00
2022-08-21T22:19:42.915Z,98930.00
2022-08-21T22:22:17.577Z,98935.19
2022-08-21T22:24:49.983Z,98939.59
2022-08-21T22:27:22.656Z,98932.91
2022-08-21T22:29:53.868Z,98930.00
2022-08-21T22:32:29.394Z,98925.41
2022-08-21T22:35:16.906Z,98927.25
2022-08-21T22:37:49.251Z,98928.28
2022-08-21T22:40:27.786Z,98928.97
2022-08-21T22:43:02.551Z,98926.06
2022-08-21T22:45:32.444Z,98925.72
2022-08-21T22:48:14.542Z,98923.91
2022-08-21T22:50:57.695Z,98927.78
2022-08-21T22:53:33.472Z,98932.94
2022-08-21T22:56:05.217Z,98935.72
2022-08-21T22:58:36.829Z,98931.84
2022-08-21T23:01:09.889Z,98926.94
2022-08-21T23:03:47.885Z,98924.63
2022-08-21T23:06:36.620Z,98922.72
2022-08-21T23:09:10.809Z,98929.78
2022-08-21T23:11:44.876Z,98920.00
2022-08-21T23:14:19.533Z,98917.97
2022-08-21T23:16:55.468Z,98923.97
2022-08-21T23:19:43.041Z,98926.13
2022-08-21T23:22:43.143Z,98923.00
2022-08-21T23:25:33.693Z,98914.31
2022-08-21T23:28:09.892Z,98911.13
2022-08-21T23:30:45.777Z,98910.78
2022-08-21T23:36:46.490Z,98907.13
2022-08-21T23:39:30.030Z,98901.59
2022-08-21T23:42:06.661Z,98910.00
2022-08-21T23:44:47.311Z,98912.56
2022-08-21T23:47:34.849Z,98915.00
2022-08-21T23:53:10.320Z,98910.94
2022-08-21T23:55:55.239Z,98915.47
2022-08-21T23:58:37.725Z,98913.97
